createdAt,value
2018-01-30T00:01:27.332Z,0.60
2018-01-30T00:03:54.988Z,0.60
2018-01-30T00:06:22.448Z,0.60
2018-01-30T00:08:49.886Z,0.80
2018-01-30T00:11:17.312Z,1.27
2018-01-30T00:13:44.774Z,0.70
2018-01-30T00:16:12.212Z,1.00
2018-01-30T00:18:39.667Z,0.83
2018-01-30T00:21:07.095Z,1.00
2018-01-30T00:23:34.523Z,0.57
2018-01-30T00:26:01.968Z,1.17
2018-01-30T00:28:30.164Z,1.23
2018-01-30T00:30:57.626Z,0.50
2018-01-30T00:33:25.058Z,0.90
2018-01-30T00:35:52.513Z,1.37
2018-01-30T00:38:19.959Z,0.87
2018-01-30T00:40:47.401Z,0.60
2018-01-30T00:43:14.847Z,0.77
2018-01-30T00:45:42.269Z,0.73
2018-01-30T00:48:10.472Z,0.90
2018-01-30T00:50:37.912Z,1.10
2018-01-30T00:53:05.362Z,1.43
2018-01-30T00:55:33.727Z,0.70
2018-01-30T00:58:01.168Z,1.13
2018-01-30T01:00:28.651Z,2.23
2018-01-30T01:02:56.056Z,0.73
2018-01-30T01:05:23.565Z,0.93
2018-01-30T01:07:51.052Z,0.70
2018-01-30T01:10:18.485Z,0.93
2018-01-30T01:12:45.922Z,1.00
2018-01-30T01:15:13.391Z,0.57
2018-01-30T01:17:40.830Z,1.73
2018-01-30T01:20:08.264Z,1.17
2018-01-30T01:22:36.012Z,1.07
2018-01-30T01:25:03.473Z,1.00
2018-01-30T01:27:30.927Z,0.87
2018-01-30T01:29:59.368Z,0.67
2018-01-30T01:32:26.876Z,1.00
2018-01-30T01:34:54.316Z,0.90
2018-01-30T01:37:21.772Z,0.60
2018-01-30T01:39:49.227Z,0.93
2018-01-30T01:42:16.654Z,0.60
2018-01-30T01:44:44.128Z,0.70
2018-01-30T01:47:11.591Z,1.90
2018-01-30T01:49:39.213Z,0.93
2018-01-30T01:52:06.650Z,0.67
2018-01-30T01:54:34.118Z,1.17
2018-01-30T01:57:01.566Z,1.10
2018-01-30T01:59:29.004Z,1.00
2018-01-30T02:01:56.552Z,0.50
2018-01-30T02:04:24.233Z,0.90
2018-01-30T02:06:51.672Z,1.00
2018-01-30T02:09:19.142Z,0.77
2018-01-30T02:11:46.574Z,0.73
2018-01-30T02:14:14.040Z,0.87
2018-01-30T02:16:41.491Z,0.90
2018-01-30T02:19:09.721Z,0.80
2018-01-30T02:21:37.192Z,2.00
2018-01-30T02:24:04.636Z,0.70
2018-01-30T02:26:32.080Z,0.80
2018-01-30T02:29:00.073Z,0.73
2018-01-30T02:31:27.500Z,0.70
2018-01-30T02:33:55.762Z,0.80
2018-01-30T02:36:23.218Z,0.73
2018-01-30T02:38:50.701Z,0.73
2018-01-30T02:41:18.143Z,0.90
2018-01-30T02:43:45.572Z,0.60
2018-01-30T02:46:13.022Z,0.90
2018-01-30T02:48:40.456Z,1.23
2018-01-30T02:51:07.908Z,1.30
2018-01-30T02:53:35.352Z,1.10
2018-01-30T02:56:02.813Z,1.50
2018-01-30T02:58:30.263Z,0.90
2018-01-30T03:00:57.708Z,0.83
2018-01-30T03:03:25.175Z,0.70
2018-01-30T03:05:52.619Z,1.33
2018-01-30T03:08:20.051Z,0.90
2018-01-30T03:10:47.601Z,0.77
2018-01-30T03:13:15.053Z,0.90
2018-01-30T03:15:42.586Z,0.90
2018-01-30T03:18:10.037Z,0.70
2018-01-30T03:20:37.653Z,0.87
2018-01-30T03:23:05.168Z,0.70
2018-01-30T03:25:32.615Z,1.37
2018-01-30T03:28:00.061Z,0.87
2018-01-30T03:30:27.489Z,1.07
2018-01-30T03:32:54.920Z,0.83
2018-01-30T03:35:22.598Z,0.70
2018-01-30T03:37:50.040Z,1.13
2018-01-30T03:40:17.472Z,1.13
2018-01-30T03:42:44.985Z,0.80
2018-01-30T03:45:12.429Z,1.63
2018-01-30T03:47:39.868Z,0.70
2018-01-30T03:50:07.515Z,1.03
2018-01-30T03:52:35.024Z,1.07
2018-01-30T03:55:02.472Z,1.03
2018-01-30T03:57:30.325Z,1.10
2018-01-30T03:59:58.277Z,1.30
2018-01-30T04:02:25.712Z,0.53
2018-01-30T04:04:53.166Z,1.37
2018-01-30T04:07:20.826Z,0.90
2018-01-30T04:09:48.269Z,1.10
2018-01-30T04:12:15.716Z,0.53
2018-01-30T04:14:43.171Z,1.03
2018-01-30T04:17:10.603Z,1.73
2018-01-30T04:19:38.040Z,1.20
2018-01-30T04:22:05.482Z,1.20
2018-01-30T04:24:32.950Z,1.80
2018-01-30T04:27:00.403Z,2.50
2018-01-30T04:29:27.832Z,0.80
2018-01-30T04:31:55.282Z,1.20
2018-01-30T04:34:22.725Z,1.20
2018-01-30T04:36:50.959Z,1.10
2018-01-30T04:39:18.405Z,0.97
2018-01-30T04:41:45.857Z,1.00
2018-01-30T04:44:13.316Z,1.07
2018-01-30T04:46:40.763Z,1.33
2018-01-30T04:49:08.451Z,1.27
2018-01-30T04:51:35.907Z,1.23
2018-01-30T04:54:03.349Z,0.90
2018-01-30T04:56:30.800Z,0.83
2018-01-30T04:58:58.239Z,0.70
2018-01-30T05:01:26.496Z,1.07
2018-01-30T05:03:53.938Z,0.60
2018-01-30T05:06:21.397Z,1.17
2018-01-30T05:08:48.845Z,0.97
2018-01-30T05:11:16.519Z,1.03
2018-01-30T05:13:45.922Z,1.37
2018-01-30T05:16:13.351Z,1.20
2018-01-30T05:18:41.561Z,1.37
2018-01-30T05:21:09.012Z,1.20
2018-01-30T05:23:36.444Z,0.80
2018-01-30T05:26:04.760Z,0.97
2018-01-30T05:28:32.180Z,0.73
2018-01-30T05:30:59.724Z,0.83
2018-01-30T05:33:27.167Z,1.23
2018-01-30T05:35:54.641Z,1.03
2018-01-30T05:38:22.096Z,0.90
2018-01-30T05:40:49.588Z,0.50
2018-01-30T05:43:17.028Z,0.70
2018-01-30T05:45:44.473Z,1.20
2018-01-30T05:48:11.925Z,1.07
2018-01-30T05:50:39.360Z,1.10
2018-01-30T05:53:06.805Z,1.57
2018-01-30T05:55:34.317Z,1.07
2018-01-30T05:58:01.808Z,0.73
2018-01-30T06:00:29.244Z,0.90
2018-01-30T06:02:56.702Z,1.45
2018-01-30T06:05:24.150Z,1.50
2018-01-30T06:07:51.584Z,2.43
2018-01-30T06:10:19.050Z,1.10
2018-01-30T06:12:46.498Z,1.10
2018-01-30T06:15:14.049Z,1.50
2018-01-30T06:17:42.275Z,0.80
2018-01-30T06:20:09.691Z,1.60
2018-01-30T06:22:37.141Z,1.17
2018-01-30T06:25:04.580Z,1.40
2018-01-30T06:27:32.027Z,1.27
2018-01-30T06:30:00.889Z,1.07
2018-01-30T06:32:28.328Z,2.00
2018-01-30T06:34:55.780Z,0.73
2018-01-30T06:37:23.221Z,2.87
2018-01-30T06:39:50.660Z,1.40
2018-01-30T06:42:18.123Z,1.77
2018-01-30T06:44:45.561Z,1.47
2018-01-30T06:47:13.052Z,1.23
2018-01-30T06:49:40.518Z,1.63
2018-01-30T06:52:07.970Z,1.10
2018-01-30T06:54:35.420Z,0.83
2018-01-30T06:57:02.861Z,2.20
2018-01-30T06:59:30.326Z,3.40
2018-01-30T07:01:57.767Z,1.83
2018-01-30T07:04:25.200Z,1.00
2018-01-30T07:06:52.653Z,1.80
2018-01-30T07:09:20.096Z,1.40
2018-01-30T07:11:47.991Z,1.57
2018-01-30T07:14:15.432Z,1.80
2018-01-30T07:16:42.878Z,1.67
2018-01-30T07:19:10.325Z,1.60
2018-01-30T07:21:38.020Z,1.47
2018-01-30T07:24:05.892Z,1.50
2018-01-30T07:26:33.346Z,1.10
2018-01-30T07:29:00.784Z,1.40
2018-01-30T07:31:28.224Z,1.50
2018-01-30T07:33:56.419Z,1.37
2018-01-30T07:36:24.220Z,2.43
2018-01-30T07:38:51.669Z,4.60
2018-01-30T07:41:19.109Z,4.00
2018-01-30T07:43:46.814Z,7.33
2018-01-30T07:46:14.286Z,4.33
2018-01-30T07:48:42.112Z,3.03
2018-01-30T07:51:09.553Z,2.30
2018-01-30T07:53:37.013Z,2.90
2018-01-30T07:56:04.468Z,2.40
2018-01-30T07:58:31.909Z,1.50
2018-01-30T08:00:59.690Z,2.60
2018-01-30T08:03:27.126Z,1.30
2018-01-30T08:05:54.567Z,2.07
2018-01-30T08:08:22.165Z,1.77
2018-01-30T08:10:49.608Z,3.73
2018-01-30T08:13:17.313Z,3.00
2018-01-30T08:15:44.766Z,2.73
2018-01-30T08:18:13.710Z,1.93
2018-01-30T08:20:41.164Z,2.30
2018-01-30T08:23:08.608Z,3.23
2018-01-30T08:25:36.316Z,3.00
2018-01-30T08:28:03.767Z,3.83
2018-01-30T08:30:31.209Z,5.87
2018-01-30T08:32:58.838Z,2.80
2018-01-30T08:35:26.287Z,3.10
2018-01-30T08:37:54.142Z,2.20
2018-01-30T08:40:21.616Z,2.90
2018-01-30T08:42:49.072Z,2.30
2018-01-30T08:45:16.536Z,8.40
2018-01-30T08:47:43.976Z,5.20
2018-01-30T08:50:11.736Z,3.50
2018-01-30T08:52:39.545Z,3.27
2018-01-30T08:55:06.987Z,2.87
2018-01-30T08:57:34.440Z,3.17
2018-01-30T09:00:05.245Z,2.73
2018-01-30T09:02:33.044Z,4.10
2018-01-30T09:05:00.480Z,2.57
2018-01-30T09:07:27.920Z,2.23
2018-01-30T09:09:56.146Z,1.97
2018-01-30T09:12:23.584Z,2.80
2018-01-30T09:14:52.108Z,2.13
2018-01-30T09:17:20.192Z,1.87
2018-01-30T09:19:47.677Z,2.13
2018-01-30T09:22:15.131Z,2.27
2018-01-30T09:24:42.569Z,2.67
2018-01-30T09:27:10.537Z,2.00
2018-01-30T09:29:37.978Z,1.80
2018-01-30T09:32:05.561Z,2.20
2018-01-30T09:34:33.013Z,1.53
2018-01-30T09:37:00.454Z,2.00
2018-01-30T09:39:28.384Z,2.13
2018-01-30T09:41:55.913Z,2.40
2018-01-30T09:44:23.786Z,2.33
2018-01-30T09:46:51.552Z,1.60
2018-01-30T09:49:19.045Z,1.80
2018-01-30T09:51:46.700Z,1.47
2018-01-30T09:54:14.149Z,2.00
2018-01-30T09:56:41.589Z,1.80
2018-01-30T09:59:09.045Z,1.87
2018-01-30T10:01:36.476Z,1.87
2018-01-30T10:04:04.981Z,1.93
2018-01-30T10:06:32.412Z,1.73
2018-01-30T10:08:59.925Z,2.23
2018-01-30T10:11:27.380Z,1.93
2018-01-30T10:13:54.905Z,1.50
2018-01-30T10:16:22.730Z,1.60
2018-01-30T10:18:50.197Z,1.33
2018-01-30T10:21:17.739Z,1.63
2018-01-30T10:23:45.164Z,1.70
2018-01-30T10:26:13.365Z,1.70
2018-01-30T10:28:41.156Z,1.77
2018-01-30T10:31:08.592Z,1.50
2018-01-30T10:33:36.027Z,2.00
2018-01-30T10:36:04.233Z,1.70
2018-01-30T10:38:31.665Z,2.17
2018-01-30T10:40:59.598Z,1.70
2018-01-30T10:43:27.028Z,1.50
2018-01-30T10:45:54.464Z,1.90
2018-01-30T10:48:21.912Z,1.30
2018-01-30T10:50:49.357Z,2.03
2018-01-30T10:53:17.225Z,1.70
2018-01-30T10:55:44.674Z,1.20
2018-01-30T10:58:12.115Z,1.50
2018-01-30T11:00:39.715Z,1.60
2018-01-30T11:03:07.165Z,1.80
2018-01-30T11:05:34.884Z,2.00
2018-01-30T11:08:02.330Z,1.67
2018-01-30T11:10:29.765Z,2.40
2018-01-30T11:12:57.215Z,1.73
2018-01-30T11:15:24.661Z,1.43
2018-01-30T11:17:52.369Z,1.30
2018-01-30T11:20:19.806Z,2.17
2018-01-30T11:22:47.244Z,1.50
2018-01-30T11:25:14.696Z,2.43
2018-01-30T11:27:46.708Z,1.77
2018-01-30T11:30:14.425Z,1.60
2018-01-30T11:32:41.878Z,2.10
2018-01-30T11:35:10.069Z,2.30
2018-01-30T11:37:38.282Z,1.90
2018-01-30T11:40:06.717Z,1.43
2018-01-30T11:42:34.730Z,1.80
2018-01-30T11:45:06.219Z,1.70
2018-01-30T11:47:33.685Z,1.23
2018-01-30T11:50:01.128Z,2.10
2018-01-30T11:52:28.568Z,1.47
2018-01-30T11:54:57.061Z,1.33
2018-01-30T11:57:24.520Z,1.50
2018-01-30T11:59:51.997Z,1.40
2018-01-30T12:02:19.761Z,1.50
2018-01-30T12:04:47.293Z,1.30
2018-01-30T12:07:14.906Z,1.60
2018-01-30T12:09:42.432Z,1.70
2018-01-30T12:12:09.864Z,1.63
2018-01-30T12:14:37.668Z,1.83
2018-01-30T12:17:05.110Z,1.40
2018-01-30T12:19:32.682Z,1.53
2018-01-30T12:22:00.119Z,1.80
2018-01-30T12:24:27.564Z,1.50
2018-01-30T12:26:55.488Z,1.93
2018-01-30T12:29:22.916Z,1.63
2018-01-30T12:31:50.348Z,1.83
2018-01-30T12:34:17.804Z,1.47
2018-01-30T12:36:45.247Z,1.80
2018-01-30T12:39:12.704Z,1.37
2018-01-30T12:41:40.147Z,1.67
2018-01-30T12:44:07.602Z,1.50
2018-01-30T12:46:35.044Z,1.70
2018-01-30T12:49:02.488Z,1.73
2018-01-30T12:51:29.940Z,1.60
2018-01-30T12:53:57.768Z,1.30
2018-01-30T12:56:25.419Z,1.90
2018-01-30T12:58:52.880Z,2.00
2018-01-30T13:01:20.316Z,1.53
2018-01-30T13:03:47.765Z,1.60
2018-01-30T13:06:15.216Z,1.60
2018-01-30T13:08:43.427Z,1.80
2018-01-30T13:11:11.126Z,1.47
2018-01-30T13:13:38.604Z,1.40
2018-01-30T13:16:06.049Z,1.47
2018-01-30T13:18:33.501Z,1.90
2018-01-30T13:21:00.954Z,1.10
2018-01-30T13:23:28.740Z,1.13
2018-01-30T13:25:56.186Z,1.03
2018-01-30T13:28:23.672Z,1.37
2018-01-30T13:30:51.124Z,1.07
2018-01-30T13:33:18.781Z,1.73
2018-01-30T13:35:47.003Z,1.50
2018-01-30T13:38:14.444Z,1.20
2018-01-30T13:40:41.882Z,1.33
2018-01-30T13:43:09.334Z,0.97
2018-01-30T13:45:36.771Z,1.20
2018-01-30T13:48:04.584Z,0.87
2018-01-30T13:50:32.033Z,0.83
2018-01-30T13:52:59.484Z,1.53
2018-01-30T13:55:26.996Z,1.10
2018-01-30T13:57:54.425Z,1.30
2018-01-30T14:00:21.998Z,1.00
2018-01-30T14:02:49.436Z,1.53
2018-01-30T14:05:17.041Z,1.43
2018-01-30T14:07:44.488Z,1.13
2018-01-30T14:10:11.937Z,0.87
2018-01-30T14:12:39.405Z,1.23
2018-01-30T14:15:08.057Z,1.00
2018-01-30T14:17:35.512Z,1.03
2018-01-30T14:20:03.843Z,1.27
2018-01-30T14:22:31.285Z,1.00
2018-01-30T14:24:58.807Z,1.23
2018-01-30T14:27:26.229Z,1.40
2018-01-30T14:29:53.691Z,1.63
2018-01-30T14:32:21.128Z,2.20
2018-01-30T14:34:48.574Z,1.40
2018-01-30T14:37:16.029Z,1.40
2018-01-30T14:39:43.460Z,1.30
2018-01-30T14:42:11.405Z,1.40
2018-01-30T14:44:38.870Z,1.77
2018-01-30T14:47:06.307Z,1.40
2018-01-30T14:49:33.757Z,1.40
2018-01-30T14:52:01.241Z,1.77
2018-01-30T14:54:28.697Z,0.97
2018-01-30T14:56:56.137Z,1.13
2018-01-30T14:59:28.153Z,2.37
2018-01-30T15:01:55.819Z,1.10
2018-01-30T15:04:23.250Z,0.90
2018-01-30T15:06:50.704Z,1.20
2018-01-30T15:09:18.128Z,1.43
2018-01-30T15:11:46.997Z,1.30
2018-01-30T15:14:14.459Z,0.97
2018-01-30T15:16:41.902Z,0.80
2018-01-30T15:19:09.342Z,1.00
2018-01-30T15:21:36.777Z,1.63
2018-01-30T15:24:04.224Z,1.00
2018-01-30T15:26:31.711Z,1.07
2018-01-30T15:28:59.320Z,1.20
2018-01-30T15:31:26.773Z,1.10
2018-01-30T15:33:54.340Z,0.90
2018-01-30T15:36:22.102Z,1.47
2018-01-30T15:38:49.557Z,1.57
2018-01-30T15:41:16.996Z,1.40
2018-01-30T15:43:44.452Z,1.40
2018-01-30T15:46:12.316Z,2.60
2018-01-30T15:48:39.764Z,1.40
2018-01-30T15:51:07.978Z,1.53
2018-01-30T15:53:35.430Z,1.40
2018-01-30T15:56:02.890Z,1.90
2018-01-30T15:58:30.320Z,1.47
2018-01-30T16:00:57.771Z,1.20
2018-01-30T16:03:25.210Z,1.20
2018-01-30T16:05:53.640Z,1.60
2018-01-30T16:08:21.100Z,1.37
2018-01-30T16:10:49.316Z,1.33
2018-01-30T16:13:16.760Z,1.67
2018-01-30T16:15:44.193Z,1.07
2018-01-30T16:18:12.439Z,1.97
2018-01-30T16:20:39.847Z,0.93
2018-01-30T16:23:07.285Z,1.47
2018-01-30T16:25:35.216Z,1.77
2018-01-30T16:28:03.431Z,1.48
2018-01-30T16:30:30.861Z,1.47
2018-01-30T16:32:59.098Z,0.93
2018-01-30T16:35:27.304Z,1.00
2018-01-30T16:37:55.105Z,1.10
2018-01-30T16:40:22.539Z,1.43
2018-01-30T16:42:49.978Z,2.30
2018-01-30T16:45:17.420Z,1.40
2018-01-30T16:47:45.616Z,2.17
2018-01-30T16:50:13.097Z,1.63
2018-01-30T16:52:40.558Z,2.37
2018-01-30T16:55:08.052Z,1.87
2018-01-30T16:57:35.484Z,2.27
2018-01-30T17:00:06.522Z,1.90
2018-01-30T17:02:33.959Z,2.23
2018-01-30T17:05:02.158Z,2.37
2018-01-30T17:07:29.610Z,2.40
2018-01-30T17:09:57.086Z,1.90
2018-01-30T17:12:24.551Z,2.77
2018-01-30T17:14:52.006Z,1.43
2018-01-30T17:17:19.432Z,1.83
2018-01-30T17:19:46.869Z,2.13
2018-01-30T17:22:14.322Z,2.67
2018-01-30T17:24:42.003Z,2.57
2018-01-30T17:27:09.432Z,2.70
2018-01-30T17:29:36.869Z,1.90
2018-01-30T17:32:04.317Z,2.30
2018-01-30T17:34:32.005Z,3.73
2018-01-30T17:36:59.428Z,3.57
2018-01-30T17:39:27.747Z,2.40
2018-01-30T17:41:55.180Z,2.40
2018-01-30T17:44:22.619Z,1.30
2018-01-30T17:46:50.061Z,2.30
2018-01-30T17:49:17.492Z,2.40
2018-01-30T17:51:44.944Z,1.77
2018-01-30T17:54:12.679Z,2.07
2018-01-30T17:56:40.102Z,1.87
2018-01-30T17:59:07.594Z,2.60
2018-01-30T18:01:36.539Z,2.07
2018-01-30T18:04:04.001Z,1.50
2018-01-30T18:06:31.429Z,5.53
2018-01-30T18:08:58.870Z,4.13
2018-01-30T18:11:26.317Z,3.73
2018-01-30T18:13:53.760Z,2.67
2018-01-30T18:16:21.205Z,2.63
2018-01-30T18:18:48.640Z,3.40
2018-01-30T18:21:16.077Z,2.13
2018-01-30T18:23:43.511Z,2.63
2018-01-30T18:26:10.950Z,2.80
2018-01-30T18:28:38.644Z,2.67
2018-01-30T18:31:06.076Z,2.23
2018-01-30T18:33:33.744Z,3.60
2018-01-30T18:36:01.189Z,3.40
2018-01-30T18:38:28.622Z,3.03
2018-01-30T18:40:56.249Z,3.00
2018-01-30T18:43:23.692Z,3.23
2018-01-30T18:45:51.121Z,3.57
2018-01-30T18:48:19.344Z,4.20
2018-01-30T18:50:46.777Z,4.53
2018-01-30T18:53:14.232Z,3.50
2018-01-30T18:55:41.676Z,3.67
2018-01-30T18:58:10.216Z,2.40
2018-01-30T19:00:37.665Z,2.80
2018-01-30T19:03:05.120Z,3.60
2018-01-30T19:05:32.567Z,3.40
2018-01-30T19:08:00.009Z,2.40
2018-01-30T19:10:28.209Z,4.10
2018-01-30T19:12:55.647Z,2.90
2018-01-30T19:15:23.991Z,3.43
2018-01-30T19:17:51.464Z,3.03
2018-01-30T19:20:18.914Z,3.30
2018-01-30T19:22:46.572Z,3.50
2018-01-30T19:25:14.067Z,2.87
2018-01-30T19:27:41.513Z,4.33
2018-01-30T19:30:09.318Z,3.87
2018-01-30T19:32:36.811Z,3.47
2018-01-30T19:35:04.244Z,6.00
2018-01-30T19:37:31.685Z,3.63
2018-01-30T19:39:59.209Z,3.50
2018-01-30T19:42:26.665Z,6.07
2018-01-30T19:44:54.105Z,6.40
2018-01-30T19:47:21.534Z,4.30
2018-01-30T19:49:49.379Z,2.97
2018-01-30T19:52:16.810Z,5.27
2018-01-30T19:54:44.296Z,5.90
2018-01-30T19:57:11.744Z,6.53
2018-01-30T19:59:39.188Z,4.90
2018-01-30T20:02:06.632Z,5.07
2018-01-30T20:04:34.077Z,4.20
2018-01-30T20:07:01.554Z,5.03
2018-01-30T20:09:29.165Z,3.73
2018-01-30T20:11:56.592Z,4.27
2018-01-30T20:14:24.048Z,3.87
2018-01-30T20:16:51.504Z,3.93
2018-01-30T20:19:18.956Z,4.30
2018-01-30T20:21:46.413Z,4.60
2018-01-30T20:24:13.847Z,3.77
2018-01-30T20:26:45.212Z,4.43
2018-01-30T20:29:12.664Z,4.37
2018-01-30T20:31:40.220Z,4.90
2018-01-30T20:34:07.674Z,3.50
2018-01-30T20:36:35.106Z,5.77
2018-01-30T20:39:02.567Z,5.13
2018-01-30T20:41:29.991Z,3.60
2018-01-30T20:43:57.420Z,6.27
2018-01-30T20:46:24.865Z,5.90
2018-01-30T20:48:52.333Z,5.50
2018-01-30T20:51:19.786Z,6.20
2018-01-30T20:53:47.211Z,5.27
2018-01-30T20:56:14.650Z,5.40
2018-01-30T20:58:42.110Z,6.57
2018-01-30T21:01:09.755Z,5.10
2018-01-30T21:03:37.212Z,7.47
2018-01-30T21:06:04.657Z,5.77
2018-01-30T21:08:32.090Z,5.23
2018-01-30T21:10:59.538Z,4.70
2018-01-30T21:13:26.967Z,4.27
2018-01-30T21:15:54.414Z,5.17
2018-01-30T21:18:21.854Z,4.27
2018-01-30T21:20:49.283Z,5.40
2018-01-30T21:23:16.746Z,5.20
2018-01-30T21:25:44.176Z,6.50
2018-01-30T21:28:11.609Z,5.83
2018-01-30T21:30:39.061Z,4.83
2018-01-30T21:33:06.498Z,5.83
2018-01-30T21:35:33.925Z,6.40
2018-01-30T21:38:01.376Z,3.90
2018-01-30T21:40:28.811Z,4.40
2018-01-30T21:42:56.253Z,4.17
2018-01-30T21:45:23.713Z,4.07
2018-01-30T21:47:51.144Z,2.97
2018-01-30T21:50:19.693Z,3.17
2018-01-30T21:52:47.216Z,2.80
2018-01-30T21:55:15.009Z,3.20
2018-01-30T21:57:42.480Z,3.60
2018-01-30T22:00:09.926Z,3.10
2018-01-30T22:02:40.425Z,4.07
2018-01-30T22:05:07.860Z,3.87
2018-01-30T22:07:35.300Z,3.87
2018-01-30T22:10:02.737Z,3.17
2018-01-30T22:12:30.177Z,3.47
2018-01-30T22:14:58.514Z,2.70
2018-01-30T22:17:25.915Z,3.50
2018-01-30T22:19:53.384Z,2.63
2018-01-30T22:22:20.817Z,3.50
2018-01-30T22:24:48.244Z,2.80
2018-01-30T22:27:15.694Z,4.10
2018-01-30T22:29:43.144Z,4.33
2018-01-30T22:32:10.919Z,4.20
2018-01-30T22:34:38.356Z,3.10
2018-01-30T22:37:05.793Z,5.07
2018-01-30T22:39:33.244Z,4.13
2018-01-30T22:42:00.684Z,4.20
2018-01-30T22:44:30.055Z,3.60
2018-01-30T22:46:55.589Z,3.83
